Time;durP1;ratioP1;P1;durP2;ratioP2;P2;SDS_P1;SDS_P2;PMS_P1;PMS_P2;Temp;Humidity;BMP_temperature;BMP_pressure;BME280_temperature;BME280_humidity;BME280_pressure;Samples;Min_cycle;Max_cycle;Signal;HPM_P1;HPM_P2
2021/09/20 00:00:46;;;;;;;0.90;0.70;;;14.40;99.90;;;;;;5030588;28;20562;-75
2021/09/20 00:03:12;;;;;;;1.17;0.80;;;14.30;99.90;;;;;;5031505;28;20180;-75
2021/09/20 00:05:38;;;;;;;2.93;1.37;;;14.30;99.90;;;;;;5030245;28;20261;-76
2021/09/20 00:08:04;;;;;;;0.80;0.70;;;14.30;99.90;;;;;;5015443;28;20173;-75
2021/09/20 00:10:30;;;;;;;1.17;0.87;;;14.40;99.90;;;;;;5012496;28;20199;-75
2021/09/20 00:12:55;;;;;;;1.00;0.80;;;14.50;99.90;;;;;;5031614;28;20422;-75
2021/09/20 00:15:21;;;;;;;1.63;1.53;;;14.40;99.90;;;;;;5021016;28;20176;-76
2021/09/20 00:17:46;;;;;;;0.90;0.70;;;14.50;99.90;;;;;;5024610;28;20539;-76
2021/09/20 00:20:13;;;;;;;1.20;0.90;;;14.60;99.90;;;;;;5023171;28;20183;-76
2021/09/20 00:22:38;;;;;;;1.10;1.00;;;14.60;99.90;;;;;;5029961;28;20575;-76
2021/09/20 00:25:07;;;;;;;1.00;0.73;;;14.60;99.90;;;;;;5034237;28;20414;-76
2021/09/20 00:27:32;;;;;;;2.70;1.00;;;14.60;99.90;;;;;;5035503;28;20170;-76
2021/09/20 00:29:58;;;;;;;1.00;0.60;;;14.60;99.90;;;;;;5030747;28;20899;-76
2021/09/20 00:32:24;;;;;;;1.00;0.80;;;14.60;99.90;;;;;;5034715;28;20195;-75
2021/09/20 00:34:49;;;;;;;0.90;0.90;;;14.60;99.90;;;;;;5033626;28;20629;-75
2021/09/20 00:37:15;;;;;;;0.70;0.57;;;14.60;99.90;;;;;;5016959;28;20208;-76
2021/09/20 00:39:41;;;;;;;1.83;1.73;;;14.60;99.90;;;;;;5031372;28;20176;-76
2021/09/20 00:42:07;;;;;;;2.00;0.70;;;14.60;99.90;;;;;;5021500;28;20207;-76
2021/09/20 00:44:33;;;;;;;2.17;1.47;;;14.60;99.90;;;;;;5034845;28;20188;-75
2021/09/20 00:46:58;;;;;;;1.70;1.27;;;14.50;99.90;;;;;;5025286;28;20169;-75
2021/09/20 00:49:24;;;;;;;1.43;1.17;;;14.50;99.90;;;;;;5030950;28;20418;-76
2021/09/20 00:51:50;;;;;;;1.83;0.90;;;14.50;99.90;;;;;;5033245;28;20199;-76
2021/09/20 00:54:16;;;;;;;0.70;0.50;;;14.40;99.90;;;;;;5015410;28;20254;-76
2021/09/20 00:56:42;;;;;;;2.07;1.90;;;14.50;99.90;;;;;;5030671;28;20201;-75
2021/09/20 00:59:08;;;;;;;3.00;2.03;;;14.40;99.90;;;;;;5035013;28;20497;-75
2021/09/20 01:01:34;;;;;;;1.27;1.17;;;14.40;99.90;;;;;;5022024;28;20466;-76
2021/09/20 01:03:59;;;;;;;0.80;0.67;;;14.40;99.90;;;;;;5034777;28;20520;-76
2021/09/20 01:06:25;;;;;;;2.83;1.90;;;14.40;99.90;;;;;;5021315;28;20207;-75
2021/09/20 01:08:51;;;;;;;1.27;1.17;;;14.30;99.90;;;;;;5034222;28;20191;-75
2021/09/20 01:11:17;;;;;;;2.80;1.07;;;14.30;99.90;;;;;;5031934;28;20191;-76
2021/09/20 01:13:42;;;;;;;1.13;0.60;;;14.30;99.90;;;;;;5021392;28;20199;-75
2021/09/20 01:16:08;;;;;;;0.90;0.80;;;14.20;99.90;;;;;;5033461;28;20186;-76
2021/09/20 01:18:33;;;;;;;1.83;1.33;;;14.20;99.90;;;;;;5034203;28;20180;-75
2021/09/20 01:20:59;;;;;;;2.70;0.73;;;14.10;99.90;;;;;;5034484;28;20208;-75
2021/09/20 01:23:25;;;;;;;1.10;1.00;;;14.10;99.90;;;;;;5016875;28;20183;-75
2021/09/20 01:25:50;;;;;;;0.90;0.73;;;14.10;99.90;;;;;;5029921;28;20221;-76
2021/09/20 01:28:16;;;;;;;1.63;1.53;;;14.10;99.90;;;;;;5030608;28;20165;-76
2021/09/20 01:30:42;;;;;;;1.10;0.70;;;14.00;99.90;;;;;;5014600;28;20192;-76
2021/09/20 01:33:07;;;;;;;0.80;0.57;;;14.00;99.90;;;;;;5019436;28;20171;-75
2021/09/20 01:35:33;;;;;;;3.83;1.33;;;14.00;99.90;;;;;;5046664;28;20643;-76
2021/09/20 01:37:59;;;;;;;2.00;1.33;;;13.90;99.90;;;;;;5016403;28;20183;-76
2021/09/20 01:40:25;;;;;;;0.90;0.80;;;13.90;99.90;;;;;;5016117;28;20200;-75
2021/09/20 01:42:51;;;;;;;1.10;1.00;;;13.90;99.90;;;;;;5016444;28;20287;-75
2021/09/20 01:45:16;;;;;;;0.90;0.73;;;13.80;99.90;;;;;;5021929;28;21030;-75
2021/09/20 01:47:43;;;;;;;0.90;0.70;;;13.80;99.90;;;;;;5018611;28;20415;-75
2021/09/20 01:50:10;;;;;;;2.10;2.00;;;13.80;99.90;;;;;;5014028;28;20176;-75
2021/09/20 01:52:37;;;;;;;0.80;0.60;;;13.70;99.90;;;;;;5012985;28;20489;-75
2021/09/20 01:55:07;;;;;;;0.77;0.60;;;13.70;99.90;;;;;;5023765;28;20938;-76
2021/09/20 01:57:33;;;;;;;1.17;1.07;;;13.60;99.90;;;;;;5024469;28;20533;-76
2021/09/20 01:59:58;;;;;;;1.17;1.07;;;13.60;99.90;;;;;;5026676;28;20532;-76
2021/09/20 02:02:24;;;;;;;9.23;2.03;;;13.50;99.90;;;;;;5025268;28;21212;-76
2021/09/20 02:04:49;;;;;;;3.60;2.10;;;13.50;99.90;;;;;;5028050;28;20176;-75
2021/09/20 02:07:15;;;;;;;1.17;1.07;;;13.50;99.90;;;;;;5020546;28;20237;-75
2021/09/20 02:09:40;;;;;;;0.80;0.80;;;13.50;99.90;;;;;;5021379;28;20176;-75
2021/09/20 02:12:06;;;;;;;1.73;1.60;;;13.40;99.90;;;;;;5033024;28;20199;-74
2021/09/20 02:14:32;;;;;;;1.53;1.43;;;13.40;99.90;;;;;;5033429;28;20233;-76
2021/09/20 02:16:57;;;;;;;1.23;0.90;;;13.40;99.90;;;;;;5033196;28;20182;-75
2021/09/20 02:19:23;;;;;;;2.30;1.50;;;13.40;99.90;;;;;;5033210;28;20225;-75
2021/09/20 02:21:48;;;;;;;0.73;0.60;;;13.40;99.90;;;;;;5027806;28;20267;-75
2021/09/20 02:24:14;;;;;;;1.57;1.47;;;13.30;99.90;;;;;;5027967;28;20175;-76
2021/09/20 02:26:39;;;;;;;1.43;1.33;;;13.30;99.90;;;;;;5024054;28;20172;-75
2021/09/20 02:29:05;;;;;;;2.20;2.10;;;13.20;99.90;;;;;;5028250;28;20179;-75
2021/09/20 02:31:31;;;;;;;11.03;1.03;;;13.20;99.90;;;;;;5025103;28;20203;-76
2021/09/20 02:33:57;;;;;;;0.80;0.67;;;13.20;99.90;;;;;;5025782;28;22072;-75
2021/09/20 02:36:23;;;;;;;1.37;0.77;;;13.20;99.90;;;;;;5024039;28;20438;-76
2021/09/20 02:38:49;;;;;;;0.80;0.63;;;13.20;99.90;;;;;;5027943;28;20437;-75
2021/09/20 02:41:15;;;;;;;1.13;1.00;;;13.10;99.90;;;;;;5027576;28;20472;-75
2021/09/20 02:43:42;;;;;;;2.37;2.17;;;13.10;99.90;;;;;;5026743;28;20539;-75
2021/09/20 02:46:07;;;;;;;1.67;0.83;;;13.10;99.90;;;;;;5030271;28;20433;-75
2021/09/20 02:48:33;;;;;;;4.70;2.50;;;13.10;99.90;;;;;;5026316;28;20423;-75
2021/09/20 02:50:59;;;;;;;1.67;1.00;;;13.00;99.90;;;;;;5032754;28;20270;-75
2021/09/20 02:53:25;;;;;;;1.90;1.80;;;13.00;99.90;;;;;;5016411;28;20248;-76
2021/09/20 02:55:51;;;;;;;0.80;0.80;;;13.00;99.90;;;;;;5012858;28;20422;-76
2021/09/20 02:58:16;;;;;;;0.80;0.60;;;12.90;99.90;;;;;;5016202;28;20253;-76
2021/09/20 03:00:42;;;;;;;1.67;1.33;;;12.90;99.90;;;;;;5023399;28;20196;-75
2021/09/20 03:03:07;;;;;;;1.63;0.83;;;12.90;99.90;;;;;;5023173;28;20208;-74
2021/09/20 03:05:35;;;;;;;2.10;1.47;;;12.80;99.90;;;;;;5029198;28;20183;-75
2021/09/20 03:08:00;;;;;;;2.67;2.47;;;12.80;99.90;;;;;;5021405;28;20191;-76
2021/09/20 03:10:26;;;;;;;1.10;0.60;;;12.80;99.90;;;;;;5027760;28;20491;-76
2021/09/20 03:12:52;;;;;;;2.40;2.30;;;12.80;99.90;;;;;;5031758;28;20271;-76
2021/09/20 03:15:17;;;;;;;1.37;1.10;;;12.80;99.90;;;;;;5030487;28;20495;-76
2021/09/20 03:17:43;;;;;;;1.10;0.80;;;12.70;99.90;;;;;;5019460;28;20180;-76
2021/09/20 03:20:09;;;;;;;1.13;1.03;;;12.70;99.90;;;;;;5016744;28;20179;-75
2021/09/20 03:22:35;;;;;;;2.00;1.90;;;12.70;99.90;;;;;;5020077;28;20711;-77
2021/09/20 03:25:01;;;;;;;0.87;0.87;;;12.70;99.90;;;;;;5019319;28;20426;-77
2021/09/20 03:27:26;;;;;;;0.80;0.60;;;12.60;99.90;;;;;;5027489;28;20651;-76
2021/09/20 03:29:52;;;;;;;1.43;1.33;;;12.60;99.90;;;;;;5050945;28;20179;-77
2021/09/20 03:32:17;;;;;;;1.17;1.07;;;12.60;99.90;;;;;;5032514;28;20202;-76
2021/09/20 03:34:43;;;;;;;0.77;0.60;;;12.50;99.90;;;;;;5030083;28;20186;-77
2021/09/20 03:37:08;;;;;;;0.77;0.57;;;12.50;99.90;;;;;;5028740;28;20195;-78
2021/09/20 03:39:34;;;;;;;0.80;0.70;;;12.50;99.90;;;;;;5030639;28;20187;-77
2021/09/20 03:41:59;;;;;;;0.70;0.50;;;12.50;99.90;;;;;;5020889;28;20689;-77
2021/09/20 03:44:25;;;;;;;1.20;1.10;;;12.40;99.90;;;;;;5032469;28;20556;-76
2021/09/20 03:46:50;;;;;;;1.67;1.57;;;12.40;99.90;;;;;;5030338;28;20605;-76
2021/09/20 03:49:16;;;;;;;0.70;0.50;;;12.40;99.90;;;;;;5020552;28;20243;-76
2021/09/20 03:51:42;;;;;;;3.33;2.83;;;12.30;99.90;;;;;;5016859;28;20215;-75
2021/09/20 03:54:07;;;;;;;1.40;1.30;;;12.30;99.90;;;;;;5029718;28;20187;-76
2021/09/20 03:56:33;;;;;;;2.13;1.07;;;12.30;99.90;;;;;;5027679;28;20527;-75
2021/09/20 03:58:58;;;;;;;0.80;0.60;;;12.30;99.90;;;;;;5040422;28;20191;-77
2021/09/20 04:01:24;;;;;;;5.23;0.93;;;12.30;99.90;;;;;;5038387;28;20226;-76
2021/09/20 04:03:50;;;;;;;1.93;1.53;;;12.20;99.90;;;;;;5032032;28;20179;-76
2021/09/20 04:06:15;;;;;;;0.80;0.70;;;12.20;99.90;;;;;;5032256;28;20183;-77
2021/09/20 04:08:41;;;;;;;0.80;0.70;;;12.20;99.90;;;;;;5037047;28;20175;-77
2021/09/20 04:11:06;;;;;;;4.90;2.80;;;12.20;99.90;;;;;;5033947;28;20260;-76
2021/09/20 04:13:32;;;;;;;1.73;1.40;;;12.10;99.90;;;;;;5033816;28;20322;-76
2021/09/20 04:15:58;;;;;;;0.80;0.60;;;12.10;99.90;;;;;;5031813;28;20198;-76
2021/09/20 04:18:26;;;;;;;0.90;0.70;;;12.10;99.90;;;;;;5025299;28;20188;-75
2021/09/20 04:20:53;;;;;;;1.83;1.73;;;12.10;99.90;;;;;;5034134;28;20203;-75
2021/09/20 04:23:21;;;;;;;2.80;2.60;;;12.10;99.90;;;;;;5033392;28;20430;-75
2021/09/20 04:25:49;;;;;;;1.03;0.93;;;12.10;99.90;;;;;;5034257;28;20434;-76
2021/09/20 04:28:15;;;;;;;1.63;1.53;;;12.10;99.90;;;;;;5032633;28;20515;-76
2021/09/20 04:30:44;;;;;;;4.93;1.00;;;12.10;99.90;;;;;;5032860;28;21024;-77
2021/09/20 04:33:18;;;;;;;0.90;0.90;;;12.10;99.90;;;;;;5026825;28;20487;-76
2021/09/20 04:35:45;;;;;;;0.80;0.73;;;12.00;99.90;;;;;;5035282;28;20516;-76
2021/09/20 04:38:11;;;;;;;0.90;0.70;;;12.00;99.90;;;;;;5029978;28;20438;-77
2021/09/20 04:40:37;;;;;;;0.80;0.70;;;12.00;99.90;;;;;;5015007;28;20478;-75
2021/09/20 04:43:04;;;;;;;1.30;0.67;;;12.00;99.90;;;;;;5027208;28;20461;-76
2021/09/20 04:45:30;;;;;;;0.87;0.77;;;12.00;99.90;;;;;;5033246;28;20441;-77
2021/09/20 04:47:56;;;;;;;0.70;0.50;;;12.00;99.90;;;;;;5025746;28;20434;-77
2021/09/20 04:50:22;;;;;;;1.10;1.00;;;11.90;99.90;;;;;;5027204;28;20202;-75
2021/09/20 04:52:47;;;;;;;0.80;0.60;;;11.90;99.90;;;;;;5029840;28;20426;-76
2021/09/20 04:55:13;;;;;;;1.27;1.17;;;11.90;99.90;;;;;;5015964;28;20411;-76
2021/09/20 04:57:38;;;;;;;1.23;1.13;;;11.90;99.90;;;;;;5037096;28;20187;-76
2021/09/20 05:00:05;;;;;;;1.30;1.20;;;11.90;99.90;;;;;;5028645;28;20195;-76
2021/09/20 05:02:31;;;;;;;1.40;1.33;;;11.90;99.90;;;;;;5024915;28;20199;-76
2021/09/20 05:04:57;;;;;;;0.80;0.70;;;11.90;99.90;;;;;;5017284;28;20767;-77
2021/09/20 05:07:22;;;;;;;2.70;1.27;;;11.80;99.90;;;;;;5030083;28;20176;-77
2021/09/20 05:09:48;;;;;;;1.10;1.00;;;11.80;99.90;;;;;;5035043;28;20250;-77
2021/09/20 05:12:13;;;;;;;1.27;1.20;;;11.80;99.90;;;;;;5031998;28;20200;-77
2021/09/20 05:14:39;;;;;;;1.53;1.10;;;11.80;99.90;;;;;;5029892;28;20294;-77
2021/09/20 05:17:05;;;;;;;1.40;1.00;;;11.80;99.90;;;;;;5031019;28;20183;-77
2021/09/20 05:19:31;;;;;;;1.53;1.20;;;11.80;99.90;;;;;;5034071;28;20182;-77
2021/09/20 05:21:57;;;;;;;0.90;0.90;;;11.80;99.90;;;;;;5032929;28;21139;-77
2021/09/20 05:24:22;;;;;;;0.73;0.60;;;11.80;99.90;;;;;;5035163;28;20462;-75
2021/09/20 05:26:48;;;;;;;0.80;0.80;;;11.80;99.90;;;;;;5032607;28;20472;-77
2021/09/20 05:29:13;;;;;;;4.17;1.53;;;11.80;99.90;;;;;;5032586;28;20222;-78
2021/09/20 05:31:39;;;;;;;2.70;1.93;;;11.80;99.90;;;;;;5028044;28;20199;-76
2021/09/20 05:34:04;;;;;;;1.60;1.50;;;11.80;99.90;;;;;;5031791;28;20194;-76
2021/09/20 05:36:30;;;;;;;2.23;1.00;;;11.80;99.90;;;;;;5033079;28;20649;-76
2021/09/20 05:38:55;;;;;;;1.60;0.87;;;11.80;99.90;;;;;;5034475;28;20194;-76
2021/09/20 05:41:21;;;;;;;1.07;1.00;;;11.80;99.90;;;;;;5033692;28;20212;-75
2021/09/20 05:43:47;;;;;;;1.10;1.00;;;11.80;99.90;;;;;;5020111;28;20176;-77
2021/09/20 05:46:12;;;;;;;1.20;1.10;;;11.80;99.90;;;;;;5031631;28;20210;-76
2021/09/20 05:48:39;;;;;;;0.70;0.50;;;11.90;99.90;;;;;;5024745;28;20183;-77
2021/09/20 05:51:05;;;;;;;0.80;0.80;;;11.90;99.90;;;;;;5027690;28;20222;-75
2021/09/20 05:53:30;;;;;;;0.93;0.83;;;11.90;99.90;;;;;;5032126;28;20511;-76
2021/09/20 05:55:56;;;;;;;1.27;1.13;;;12.00;99.90;;;;;;5032903;28;20947;-75
2021/09/20 05:58:22;;;;;;;2.13;2.00;;;12.00;99.90;;;;;;5031260;28;20242;-75
2021/09/20 06:00:48;;;;;;;0.80;0.70;;;12.10;99.90;;;;;;5030941;28;20222;-76
2021/09/20 06:03:14;;;;;;;2.07;0.90;;;12.20;99.90;;;;;;5032690;28;20466;-77
2021/09/20 06:05:41;;;;;;;3.80;1.00;;;12.30;99.90;;;;;;5033177;28;20502;-76
2021/09/20 06:08:07;;;;;;;2.40;1.87;;;12.40;99.90;;;;;;5013724;28;20167;-76
2021/09/20 06:10:34;;;;;;;2.00;1.90;;;12.40;99.90;;;;;;5017495;28;20450;-76
2021/09/20 06:13:00;;;;;;;0.80;0.60;;;12.50;99.90;;;;;;5027486;28;20947;-76
2021/09/20 06:15:26;;;;;;;0.80;0.60;;;12.60;99.90;;;;;;5024895;28;20426;-75
2021/09/20 06:17:51;;;;;;;1.17;1.00;;;12.70;99.90;;;;;;5026237;28;20648;-77
2021/09/20 06:20:17;;;;;;;1.67;0.90;;;12.80;99.90;;;;;;5030557;28;20175;-76
2021/09/20 06:22:43;;;;;;;0.70;0.50;;;12.90;99.90;;;;;;5031283;28;20217;-76
2021/09/20 06:25:09;;;;;;;0.80;0.60;;;13.00;99.90;;;;;;5032367;28;20579;-76
2021/09/20 06:27:36;;;;;;;0.87;0.67;;;13.10;99.90;;;;;;5025574;28;20429;-76
2021/09/20 06:30:04;;;;;;;1.00;0.90;;;13.20;99.90;;;;;;5031061;28;20436;-77
2021/09/20 06:32:29;;;;;;;12.13;2.77;;;13.30;99.90;;;;;;5020198;28;20442;-77
2021/09/20 06:34:56;;;;;;;1.10;1.00;;;13.40;99.90;;;;;;5026714;28;20436;-77
2021/09/20 06:37:21;;;;;;;0.80;0.70;;;13.50;99.90;;;;;;5030248;28;20596;-76
2021/09/20 06:39:47;;;;;;;1.30;0.90;;;13.60;99.90;;;;;;5029254;28;20445;-76
2021/09/20 06:42:12;;;;;;;1.40;1.30;;;13.70;99.90;;;;;;5030528;28;20207;-76
2021/09/20 06:44:38;;;;;;;1.27;1.03;;;13.80;99.90;;;;;;5022252;28;20187;-76
2021/09/20 06:47:04;;;;;;;1.70;1.60;;;13.90;99.90;;;;;;5022684;28;20186;-77
2021/09/20 06:49:29;;;;;;;1.00;0.90;;;13.90;99.90;;;;;;5032248;28;20210;-77
2021/09/20 06:51:55;;;;;;;0.80;0.70;;;14.00;99.90;;;;;;5029762;28;20233;-76
2021/09/20 06:54:21;;;;;;;1.00;0.90;;;14.10;99.90;;;;;;5028691;28;20207;-77
2021/09/20 06:56:48;;;;;;;1.17;1.00;;;14.10;99.90;;;;;;5023052;28;20262;-76
2021/09/20 06:59:13;;;;;;;0.90;0.70;;;14.20;99.90;;;;;;5013529;28;20427;-76
2021/09/20 07:01:40;;;;;;;1.63;1.37;;;14.30;99.90;;;;;;5018450;28;20462;-76
2021/09/20 07:04:05;;;;;;;1.77;1.30;;;14.30;99.90;;;;;;5015040;28;20434;-76
2021/09/20 07:06:31;;;;;;;1.60;1.50;;;14.50;99.90;;;;;;5023351;28;20419;-78
2021/09/20 07:08:57;;;;;;;1.17;1.07;;;14.60;99.90;;;;;;5035441;28;20186;-78
2021/09/20 07:11:23;;;;;;;1.03;0.93;;;14.60;99.90;;;;;;5027839;28;20546;-78
2021/09/20 07:13:49;;;;;;;0.70;0.50;;;14.60;99.90;;;;;;5019207;28;20198;-78
2021/09/20 07:16:15;;;;;;;2.00;1.03;;;14.70;99.90;;;;;;5029083;28;20435;-77
2021/09/20 07:18:40;;;;;;;2.97;0.77;;;14.80;99.90;;;;;;5029564;28;20197;-79
2021/09/20 07:21:06;;;;;;;0.80;0.70;;;14.90;99.90;;;;;;5034832;28;20196;-78
2021/09/20 07:23:31;;;;;;;0.83;0.83;;;15.00;99.90;;;;;;5029766;28;20171;-76
2021/09/20 07:25:57;;;;;;;1.93;1.30;;;15.20;99.90;;;;;;5030843;28;20214;-77
2021/09/20 07:28:23;;;;;;;1.63;1.53;;;15.40;99.90;;;;;;5022053;28;20176;-77
2021/09/20 07:30:49;;;;;;;1.10;1.00;;;15.50;99.90;;;;;;5023862;28;20446;-77
2021/09/20 07:33:15;;;;;;;1.37;1.27;;;15.70;99.90;;;;;;5029911;28;20637;-77
2021/09/20 07:35:41;;;;;;;1.13;1.03;;;15.90;99.90;;;;;;5026963;28;20437;-77
2021/09/20 07:38:07;;;;;;;3.80;1.77;;;15.80;99.90;;;;;;5028255;28;20699;-76
2021/09/20 07:40:32;;;;;;;2.90;1.57;;;15.90;99.90;;;;;;5029937;28;20536;-76
2021/09/20 07:42:59;;;;;;;1.13;1.03;;;16.10;99.90;;;;;;5032777;28;20211;-76
2021/09/20 07:45:25;;;;;;;1.00;0.70;;;16.10;99.90;;;;;;5025589;28;20753;-75
2021/09/20 07:47:51;;;;;;;2.40;1.10;;;16.20;99.90;;;;;;5025261;28;20472;-76
2021/09/20 07:50:18;;;;;;;1.33;1.10;;;16.20;99.90;;;;;;5026426;28;20518;-76
2021/09/20 07:52:45;;;;;;;0.80;0.50;;;16.30;99.90;;;;;;5024471;28;20270;-77
2021/09/20 07:55:12;;;;;;;1.37;1.27;;;16.40;99.90;;;;;;5024826;28;20497;-77
2021/09/20 07:57:38;;;;;;;1.03;0.93;;;16.40;99.90;;;;;;5012276;28;20447;-76
2021/09/20 08:00:06;;;;;;;1.00;0.63;;;16.50;99.90;;;;;;5026040;28;20516;-76
2021/09/20 08:02:31;;;;;;;2.80;0.90;;;16.90;99.90;;;;;;5027600;28;20227;-76
2021/09/20 08:04:57;;;;;;;1.50;1.40;;;17.30;99.90;;;;;;5026307;28;20437;-75
2021/09/20 08:07:22;;;;;;;1.20;1.10;;;17.60;99.90;;;;;;5033332;28;20758;-78
2021/09/20 08:09:48;;;;;;;1.37;1.10;;;18.10;99.90;;;;;;5032789;28;20584;-77
2021/09/20 08:12:14;;;;;;;1.10;0.90;;;18.40;99.90;;;;;;5030674;28;20239;-77
2021/09/20 08:14:41;;;;;;;1.47;1.33;;;18.70;99.90;;;;;;5026123;28;20187;-77
2021/09/20 08:17:07;;;;;;;0.93;0.83;;;19.20;99.90;;;;;;5025999;28;20225;-77
2021/09/20 08:19:33;;;;;;;1.37;1.27;;;19.80;99.90;;;;;;5029889;28;20426;-77
2021/09/20 08:21:58;;;;;;;1.27;0.70;;;20.40;99.90;;;;;;5029184;28;20482;-77
2021/09/20 08:24:24;;;;;;;1.50;1.40;;;21.00;99.90;;;;;;5030836;28;20199;-77
2021/09/20 08:26:49;;;;;;;0.80;0.70;;;21.50;99.90;;;;;;5027083;28;20184;-77
2021/09/20 08:29:15;;;;;;;1.53;1.43;;;21.80;99.90;;;;;;5022134;28;20183;-77
2021/09/20 08:31:41;;;;;;;1.00;0.90;;;22.40;99.90;;;;;;5017567;28;20192;-77
2021/09/20 08:34:06;;;;;;;1.90;1.30;;;22.80;99.90;;;;;;5011869;28;20315;-79
2021/09/20 08:36:32;;;;;;;2.37;2.00;;;23.10;99.90;;;;;;5027209;28;20557;-79
2021/09/20 08:38:57;;;;;;;2.77;1.90;;;23.50;98.80;;;;;;5034833;28;20179;-78
2021/09/20 08:41:23;;;;;;;1.20;1.03;;;23.70;96.90;;;;;;5024244;28;20200;-78
2021/09/20 08:43:49;;;;;;;1.00;0.80;;;24.10;94.10;;;;;;5027223;28;20182;-79
2021/09/20 08:46:14;;;;;;;1.20;1.10;;;24.40;94.50;;;;;;5033755;28;20235;-79
2021/09/20 08:48:48;;;;;;;1.27;1.17;;;24.90;94.00;;;;;;5034670;28;20231;-79
2021/09/20 08:51:16;;;;;;;1.77;1.67;;;25.10;90.40;;;;;;5035296;28;20199;-79
2021/09/20 08:53:42;;;;;;;1.80;1.10;;;25.60;91.30;;;;;;5038450;28;20433;-78
2021/09/20 08:56:08;;;;;;;1.10;0.87;;;25.90;83.60;;;;;;5033424;28;20462;-79
2021/09/20 08:58:33;;;;;;;5.17;1.77;;;26.20;81.10;;;;;;5037089;28;20438;-78
2021/09/20 09:01:00;;;;;;;1.13;1.03;;;26.20;78.10;;;;;;5034822;28;20245;-79
2021/09/20 09:03:29;;;;;;;1.17;0.90;;;26.20;74.60;;;;;;5036595;28;20188;-79
2021/09/20 09:05:54;;;;;;;2.80;0.93;;;26.50;75.90;;;;;;5026664;28;20427;-79
2021/09/20 09:08:33;;;;;;;1.23;0.90;;;26.90;72.80;;;;;;5035669;28;20826;-79
2021/09/20 09:11:06;;;;;;;1.97;1.87;;;27.10;69.70;;;;;;5037041;28;20203;-79
2021/09/20 09:13:34;;;;;;;1.43;1.33;;;27.10;69.90;;;;;;5037231;28;20454;-78
2021/09/20 09:16:26;;;;;;;3.00;1.50;;;27.50;70.40;;;;;;5034389;28;20766;-78
2021/09/20 09:19:09;;;;;;;1.20;1.07;;;27.80;70.40;;;;;;5033236;28;20434;-77
2021/09/20 09:21:38;;;;;;;1.57;0.97;;;27.70;63.50;;;;;;5033786;28;20822;-78
2021/09/20 09:24:06;;;;;;;0.90;0.80;;;27.30;66.00;;;;;;5034123;28;20438;-78
2021/09/20 09:26:32;;;;;;;1.10;1.00;;;27.30;63.20;;;;;;5035535;28;20437;-77
2021/09/20 09:29:11;;;;;;;1.17;1.07;;;27.60;64.00;;;;;;5033374;28;20466;-78
2021/09/20 09:31:38;;;;;;;1.40;1.30;;;27.60;61.70;;;;;;5035329;28;20675;-78
2021/09/20 09:34:42;;;;;;;1.27;1.17;;;27.40;61.50;;;;;;5034720;28;20406;-78
2021/09/20 09:37:13;;;;;;;1.00;0.80;;;27.50;62.30;;;;;;4992595;28;20437;-77
2021/09/20 09:39:40;;;;;;;1.10;0.87;;;26.90;59.60;;;;;;5028943;28;20540;-78
2021/09/20 09:42:22;;;;;;;1.73;0.90;;;26.80;60.80;;;;;;5035948;28;20549;-78
2021/09/20 09:44:47;;;;;;;1.57;1.03;;;26.80;63.90;;;;;;5032678;28;20557;-77
2021/09/20 09:47:27;;;;;;;1.10;0.80;;;27.20;63.80;;;;;;5035347;28;20453;-78
2021/09/20 09:50:20;;;;;;;2.50;1.50;;;27.20;60.50;;;;;;5028031;28;20175;-78
2021/09/20 09:52:48;;;;;;;0.90;0.70;;;27.40;61.80;;;;;;5034437;28;20426;-77
2021/09/20 09:55:13;;;;;;;1.73;1.63;;;27.30;63.00;;;;;;5031170;28;20437;-78
2021/09/20 09:57:39;;;;;;;1.90;0.87;;;27.10;60.90;;;;;;5032177;28;20806;-78
2021/09/20 10:00:09;;;;;;;1.27;0.80;;;27.30;62.70;;;;;;5033707;28;20183;-77
2021/09/20 10:02:37;;;;;;;0.90;0.80;;;27.70;59.00;;;;;;5032918;28;20465;-77
2021/09/20 10:05:10;;;;;;;1.13;1.03;;;28.10;59.80;;;;;;5034129;28;20458;-77
2021/09/20 10:07:38;;;;;;;1.20;0.80;;;28.00;58.50;;;;;;5034847;28;20457;-78
2021/09/20 10:10:08;;;;;;;1.37;1.10;;;27.80;58.30;;;;;;5033943;28;20464;-78
2021/09/20 10:12:34;;;;;;;1.70;1.40;;;27.80;58.30;;;;;;5033240;28;20979;-78
2021/09/20 10:15:02;;;;;;;1.03;0.93;;;28.10;59.00;;;;;;5032399;28;20517;-78
2021/09/20 10:17:29;;;;;;;1.10;0.97;;;28.50;60.30;;;;;;5034504;28;20414;-77
2021/09/20 10:19:56;;;;;;;1.77;0.90;;;28.70;59.70;;;;;;5030567;28;20433;-78
2021/09/20 10:22:22;;;;;;;2.53;2.20;;;29.20;58.90;;;;;;5032163;28;20454;-78
2021/09/20 10:24:56;;;;;;;2.80;2.10;;;29.70;61.20;;;;;;5029144;28;20430;-78
2021/09/20 10:27:23;;;;;;;1.70;1.47;;;29.80;57.30;;;;;;5034711;28;20175;-78
2021/09/20 10:29:55;;;;;;;1.40;0.93;;;30.10;55.60;;;;;;5033233;28;20441;-78
2021/09/20 10:32:21;;;;;;;1.10;1.00;;;29.40;55.00;;;;;;5033626;28;20453;-78
2021/09/20 10:34:49;;;;;;;1.43;1.33;;;29.20;56.40;;;;;;5025856;28;20950;-78
2021/09/20 10:37:23;;;;;;;1.73;1.37;;;29.00;55.90;;;;;;5027167;28;20974;-78
2021/09/20 10:39:55;;;;;;;1.37;1.00;;;28.90;57.70;;;;;;5032875;28;20425;-78
2021/09/20 10:42:36;;;;;;;1.90;1.47;;;28.50;55.90;;;;;;5013219;28;20454;-77
2021/09/20 10:45:07;;;;;;;1.73;1.27;;;27.80;57.00;;;;;;5014443;28;20414;-76
2021/09/20 10:47:44;;;;;;;1.20;0.97;;;27.40;57.20;;;;;;5026134;28;20458;-78
2021/09/20 10:50:11;;;;;;;2.60;1.00;;;28.00;59.60;;;;;;5033053;28;20429;-76
2021/09/20 10:52:36;;;;;;;0.93;0.83;;;27.40;56.90;;;;;;5034423;28;21065;-78
2021/09/20 10:55:09;;;;;;;1.43;1.10;;;27.20;57.00;;;;;;5023468;28;20458;-77
2021/09/20 10:57:35;;;;;;;1.77;1.00;;;26.50;57.20;;;;;;5026474;28;20785;-77
2021/09/20 11:00:20;;;;;;;1.00;0.90;;;26.00;59.30;;;;;;5033091;28;20414;-77
2021/09/20 11:02:46;;;;;;;1.13;1.00;;;25.60;61.30;;;;;;5016926;28;20454;-76
2021/09/20 11:05:11;;;;;;;1.70;1.57;;;25.60;63.30;;;;;;5014488;28;20427;-77
2021/09/20 11:07:48;;;;;;;1.57;1.00;;;25.50;63.30;;;;;;5014443;28;20609;-77
2021/09/20 11:10:14;;;;;;;1.80;1.70;;;25.40;62.80;;;;;;5029443;28;20246;-77
2021/09/20 11:12:59;;;;;;;1.40;1.13;;;25.10;63.60;;;;;;5031523;28;20434;-76
2021/09/20 11:15:25;;;;;;;0.90;0.80;;;24.80;62.70;;;;;;5030295;28;20437;-77
2021/09/20 11:17:52;;;;;;;1.20;1.00;;;24.80;66.40;;;;;;5030188;28;20434;-77
2021/09/20 11:20:35;;;;;;;1.20;1.10;;;24.70;67.50;;;;;;5030805;28;20175;-76
2021/09/20 11:23:21;;;;;;;1.30;1.00;;;23.80;64.60;;;;;;5029648;28;20492;-77
2021/09/20 11:26:06;;;;;;;1.03;0.73;;;23.70;67.60;;;;;;5026778;28;20449;-77
2021/09/20 11:28:34;;;;;;;1.10;1.00;;;23.40;67.50;;;;;;5020143;28;20421;-76
2021/09/20 11:31:00;;;;;;;1.17;0.87;;;23.10;70.20;;;;;;5030095;28;20470;-78
2021/09/20 11:33:42;;;;;;;1.40;1.30;;;22.70;70.00;;;;;;5024350;28;20944;-77
2021/09/20 11:36:19;;;;;;;1.40;1.17;;;22.70;72.10;;;;;;5028769;28;20172;-77
2021/09/20 11:38:45;;;;;;;1.00;0.80;;;22.70;73.00;;;;;;5033600;28;20794;-77
2021/09/20 11:41:23;;;;;;;1.10;0.90;;;22.70;74.70;;;;;;5027652;28;20553;-77
2021/09/20 11:43:50;;;;;;;2.50;0.90;;;22.60;75.50;;;;;;5025805;28;20464;-76
2021/09/20 11:46:24;;;;;;;1.37;1.27;;;22.60;78.90;;;;;;5025678;28;20546;-77
2021/09/20 11:49:03;;;;;;;2.40;1.90;;;22.50;75.50;;;;;;5027763;28;20483;-76
2021/09/20 11:51:28;;;;;;;4.60;1.13;;;22.60;80.30;;;;;;5026156;28;20442;-77
2021/09/20 11:53:54;;;;;;;2.00;1.27;;;22.60;78.80;;;;;;5025308;28;20796;-76
2021/09/20 11:56:24;;;;;;;2.23;1.00;;;22.60;82.00;;;;;;5027885;28;20671;-76
2021/09/20 11:58:53;;;;;;;2.03;1.37;;;22.60;78.80;;;;;;5027897;28;20225;-77
2021/09/20 12:01:23;;;;;;;1.20;1.07;;;22.40;76.10;;;;;;5026605;28;20521;-77
2021/09/20 12:03:51;;;;;;;2.50;1.63;;;22.30;79.70;;;;;;5025569;28;20785;-77
2021/09/20 12:06:16;;;;;;;1.27;1.13;;;22.40;85.40;;;;;;5023819;28;20449;-77
2021/09/20 12:08:42;;;;;;;2.00;1.60;;;22.40;86.80;;;;;;5032370;28;20422;-77
2021/09/20 12:11:07;;;;;;;2.50;2.30;;;22.40;81.60;;;;;;5031224;28;20192;-76
2021/09/20 12:13:35;;;;;;;1.77;0.97;;;22.30;83.60;;;;;;5031406;28;20270;-76
2021/09/20 12:16:09;;;;;;;1.33;1.07;;;22.20;85.90;;;;;;5024870;28;20210;-76
2021/09/20 12:18:35;;;;;;;1.53;1.43;;;22.20;83.50;;;;;;5022516;28;20434;-77
2021/09/20 12:21:12;;;;;;;1.10;0.73;;;22.10;81.60;;;;;;5033196;28;20504;-77
2021/09/20 12:23:43;;;;;;;2.47;1.40;;;22.10;83.90;;;;;;5030634;28;20798;-77
2021/09/20 12:26:11;;;;;;;1.53;1.10;;;22.10;82.20;;;;;;5032225;28;20826;-77
2021/09/20 12:29:00;;;;;;;1.13;0.80;;;21.80;82.00;;;;;;5025779;28;20410;-77
2021/09/20 12:31:31;;;;;;;1.47;1.10;;;21.60;84.70;;;;;;5019942;28;20450;-77
2021/09/20 12:33:59;;;;;;;1.30;1.20;;;21.50;88.30;;;;;;5032912;28;20437;-76
2021/09/20 12:36:40;;;;;;;0.90;0.70;;;21.50;87.80;;;;;;5034175;28;20422;-76
2021/09/20 12:39:09;;;;;;;3.20;1.10;;;21.50;89.00;;;;;;5036199;28;20394;-77
2021/09/20 12:41:46;;;;;;;0.90;0.70;;;21.40;88.50;;;;;;5034787;28;20461;-76
2021/09/20 12:44:27;;;;;;;1.00;0.90;;;21.40;90.90;;;;;;5033461;28;20430;-77
2021/09/20 12:47:23;;;;;;;1.07;0.97;;;21.50;92.10;;;;;;5020977;28;20430;-76
2021/09/20 12:50:07;;;;;;;1.07;0.70;;;21.50;90.10;;;;;;5019671;28;20949;-77